Time;durP1;ratioP1;P1;durP2;ratioP2;P2;SDS_P1;SDS_P2;PMS_P1;PMS_P2;Temp;Humidity;BMP_temperature;BMP_pressure;BME280_temperature;BME280_humidity;BME280_pressure;Samples;Min_cycle;Max_cycle;Signal;HPM_P1;HPM_P2
2023/10/31 00:00:09;;;;;;;11.63;5.80;;;;;;;;;;5042745;28;20488;-60
2023/10/31 00:02:35;;;;;;;18.05;6.07;;;;;;;;;;5040976;28;20051;-60
2023/10/31 00:05:01;;;;;;;14.13;5.30;;;;;;;;;;5041161;28;20055;-60
2023/10/31 00:07:28;;;;;;;18.70;6.13;;;;;;;;;;5040536;28;20413;-60
2023/10/31 00:09:54;;;;;;;12.77;5.50;;;;;;;;;;5042107;28;20131;-60
2023/10/31 00:12:20;;;;;;;13.02;4.30;;;;;;;;;;5040136;28;20508;-60
2023/10/31 00:14:46;;;;;;;14.43;5.28;;;;;;;;;;5039616;28;20140;-60
2023/10/31 00:17:12;;;;;;;16.67;4.97;;;;;;;;;;5042923;28;20047;-60
2023/10/31 00:19:38;;;;;;;15.00;4.25;;;;;;;;;;5039419;28;20098;-60
2023/10/31 00:22:05;;;;;;;19.00;4.85;;;;;;;;;;5037850;28;20037;-60
2023/10/31 00:24:32;;;;;;;16.40;4.68;;;;;;;;;;5043714;28;20051;-60
2023/10/31 00:26:58;;;;;;;13.70;4.50;;;;;;;;;;5047917;28;20405;-60
2023/10/31 00:29:24;;;;;;;17.75;4.78;;;;;;;;;;5046496;28;20417;-60
2023/10/31 00:31:51;;;;;;;13.27;4.90;;;;;;;;;;5051589;28;20120;-60
2023/10/31 00:34:17;;;;;;;12.50;4.68;;;;;;;;;;5050767;28;20049;-60
2023/10/31 00:36:43;;;;;;;18.92;4.40;;;;;;;;;;5051681;28;20115;-60
2023/10/31 00:39:10;;;;;;;13.57;4.03;;;;;;;;;;5050618;28;20439;-60
2023/10/31 00:41:36;;;;;;;11.18;3.58;;;;;;;;;;5047702;28;20077;-60
2023/10/31 00:44:02;;;;;;;12.98;3.20;;;;;;;;;;5047404;28;20047;-60
2023/10/31 00:46:28;;;;;;;11.57;3.13;;;;;;;;;;5050629;28;20052;-60
2023/10/31 00:48:55;;;;;;;27.17;4.10;;;;;;;;;;5046939;28;20045;-60
2023/10/31 00:51:21;;;;;;;13.43;3.00;;;;;;;;;;5042410;28;20033;-60
2023/10/31 00:53:47;;;;;;;12.02;2.83;;;;;;;;;;5044535;28;20041;-60
2023/10/31 00:56:13;;;;;;;9.90;2.55;;;;;;;;;;5042581;28;20496;-60
2023/10/31 00:58:40;;;;;;;10.27;3.15;;;;;;;;;;5044363;28;20110;-60
2023/10/31 01:01:06;;;;;;;7.43;2.30;;;;;;;;;;5045084;28;20073;-60
2023/10/31 01:03:32;;;;;;;12.43;2.97;;;;;;;;;;5042463;28;20127;-60
2023/10/31 01:05:58;;;;;;;14.30;2.97;;;;;;;;;;5044837;28;20090;-60
2023/10/31 01:08:24;;;;;;;9.30;2.63;;;;;;;;;;5044960;28;20047;-60
2023/10/31 01:10:50;;;;;;;11.10;2.90;;;;;;;;;;5042835;28;20137;-60
2023/10/31 01:13:17;;;;;;;14.05;3.28;;;;;;;;;;5043403;28;20146;-60
2023/10/31 01:15:43;;;;;;;16.05;4.32;;;;;;;;;;5028132;28;20049;-60
2023/10/31 01:18:09;;;;;;;8.55;3.70;;;;;;;;;;5047765;28;20059;-60
2023/10/31 01:20:36;;;;;;;16.75;4.05;;;;;;;;;;5044646;28;20099;-60
2023/10/31 01:23:02;;;;;;;11.75;3.60;;;;;;;;;;5043897;28;20092;-60
2023/10/31 01:25:29;;;;;;;8.77;4.10;;;;;;;;;;5043914;28;20103;-60
2023/10/31 01:27:55;;;;;;;11.23;4.47;;;;;;;;;;5043509;28;20045;-60
2023/10/31 01:30:21;;;;;;;16.65;4.18;;;;;;;;;;5042806;28;20053;-60
2023/10/31 01:32:47;;;;;;;14.63;4.55;;;;;;;;;;5043670;28;20515;-60
2023/10/31 01:35:13;;;;;;;12.05;4.53;;;;;;;;;;5042578;28;20476;-60
2023/10/31 01:37:39;;;;;;;9.45;4.05;;;;;;;;;;5042778;28;20106;-60
2023/10/31 01:40:07;;;;;;;12.82;4.75;;;;;;;;;;5043612;28;20039;-60
2023/10/31 01:42:33;;;;;;;16.38;4.90;;;;;;;;;;5045765;28;20099;-60
2023/10/31 01:44:59;;;;;;;15.05;5.03;;;;;;;;;;5041943;28;20118;-60
2023/10/31 01:47:25;;;;;;;16.85;4.63;;;;;;;;;;5041436;28;20116;-60
2023/10/31 01:49:52;;;;;;;18.10;5.78;;;;;;;;;;5042513;28;20813;-60
2023/10/31 01:52:19;;;;;;;17.98;4.97;;;;;;;;;;5047186;28;20052;-60
2023/10/31 01:54:45;;;;;;;12.50;4.18;;;;;;;;;;5042762;28;20045;-60
2023/10/31 01:57:11;;;;;;;20.80;4.50;;;;;;;;;;5047228;28;20039;-60
2023/10/31 01:59:38;;;;;;;21.67;4.35;;;;;;;;;;5047173;28;20128;-60
2023/10/31 02:02:04;;;;;;;18.25;4.30;;;;;;;;;;5031071;28;20412;-60
2023/10/31 02:04:30;;;;;;;26.13;3.65;;;;;;;;;;5049740;28;20033;-60
2023/10/31 02:06:56;;;;;;;16.75;4.15;;;;;;;;;;5047939;28;20117;-60
2023/10/31 02:09:28;;;;;;;18.92;3.88;;;;;;;;;;5044091;28;20068;-60
2023/10/31 02:11:55;;;;;;;18.25;3.75;;;;;;;;;;5041301;28;20084;-60
2023/10/31 02:14:23;;;;;;;13.85;3.70;;;;;;;;;;5042412;28;20054;-60
2023/10/31 02:16:49;;;;;;;16.73;4.32;;;;;;;;;;5044988;28;20037;-60
2023/10/31 02:19:19;;;;;;;14.90;4.05;;;;;;;;;;5043655;28;20106;-60
2023/10/31 02:21:45;;;;;;;19.83;4.45;;;;;;;;;;5039369;28;20434;-59
2023/10/31 02:24:12;;;;;;;19.13;4.50;;;;;;;;;;5043413;28;20045;-60
2023/10/31 02:26:38;;;;;;;20.80;4.50;;;;;;;;;;5039765;28;20045;-60
2023/10/31 02:29:04;;;;;;;19.55;4.60;;;;;;;;;;5042890;28;20053;-60
2023/10/31 02:31:30;;;;;;;14.80;4.32;;;;;;;;;;5040142;28;20438;-60
2023/10/31 02:33:57;;;;;;;12.98;3.92;;;;;;;;;;5041731;28;20077;-60
2023/10/31 02:36:23;;;;;;;13.88;3.47;;;;;;;;;;5041828;28;20123;-60
2023/10/31 02:38:49;;;;;;;14.10;3.22;;;;;;;;;;5041624;28;20409;-60
2023/10/31 02:41:16;;;;;;;15.93;3.40;;;;;;;;;;5040009;28;20041;-60
2023/10/31 02:43:43;;;;;;;17.33;3.30;;;;;;;;;;5042320;28;20045;-60
2023/10/31 02:46:12;;;;;;;16.27;3.45;;;;;;;;;;5042733;28;20049;-60
2023/10/31 02:48:39;;;;;;;12.32;3.75;;;;;;;;;;5041370;28;20045;-60
2023/10/31 02:51:06;;;;;;;12.27;3.42;;;;;;;;;;5043106;28;20049;-60
2023/10/31 02:53:32;;;;;;;15.50;3.67;;;;;;;;;;5041105;28;20044;-60
2023/10/31 02:55:58;;;;;;;15.68;3.42;;;;;;;;;;5040406;28;20045;-60
2023/10/31 02:58:24;;;;;;;19.15;4.28;;;;;;;;;;5040744;28;20060;-60
2023/10/31 03:00:51;;;;;;;26.40;4.72;;;;;;;;;;5044735;28;20422;-60
2023/10/31 03:03:17;;;;;;;14.27;3.60;;;;;;;;;;5041826;28;20475;-60
2023/10/31 03:05:43;;;;;;;22.23;3.92;;;;;;;;;;5042281;28;20044;-60
2023/10/31 03:08:10;;;;;;;21.63;3.85;;;;;;;;;;5042968;28;20489;-60
2023/10/31 03:10:37;;;;;;;20.27;3.38;;;;;;;;;;5041508;28;20412;-60
2023/10/31 03:13:03;;;;;;;20.17;4.38;;;;;;;;;;5041783;28;20036;-60
2023/10/31 03:15:29;;;;;;;16.38;4.13;;;;;;;;;;5042442;28;20505;-60
2023/10/31 03:17:55;;;;;;;18.55;3.75;;;;;;;;;;5045368;28;20511;-60
2023/10/31 03:20:22;;;;;;;13.43;3.55;;;;;;;;;;5042313;28;20037;-60
2023/10/31 03:22:48;;;;;;;15.00;3.33;;;;;;;;;;5022594;28;20052;-60
2023/10/31 03:25:14;;;;;;;13.65;3.60;;;;;;;;;;5042366;28;20067;-60
2023/10/31 03:27:40;;;;;;;12.30;3.53;;;;;;;;;;5050418;28;20120;-60
2023/10/31 03:30:07;;;;;;;12.48;3.13;;;;;;;;;;5049696;28;20125;-60
2023/10/31 03:32:33;;;;;;;14.35;4.00;;;;;;;;;;5048306;28;20049;-60
2023/10/31 03:34:59;;;;;;;19.58;3.72;;;;;;;;;;5050233;28;20048;-60
2023/10/31 03:37:25;;;;;;;13.95;2.97;;;;;;;;;;5029164;28;20065;-60
2023/10/31 03:39:51;;;;;;;17.20;4.40;;;;;;;;;;5039053;28;20106;-60
2023/10/31 03:42:17;;;;;;;11.88;2.97;;;;;;;;;;5041223;28;20517;-60
2023/10/31 03:44:44;;;;;;;14.25;2.60;;;;;;;;;;5040608;28;20052;-60
2023/10/31 03:47:10;;;;;;;10.55;2.50;;;;;;;;;;5039894;28;20181;-60
2023/10/31 03:49:40;;;;;;;13.35;2.72;;;;;;;;;;5040099;28;20414;-60
2023/10/31 03:52:06;;;;;;;8.98;2.75;;;;;;;;;;5039394;28;20250;-60
2023/10/31 03:54:33;;;;;;;12.88;2.22;;;;;;;;;;5040400;28;20064;-60
2023/10/31 03:56:59;;;;;;;13.15;2.50;;;;;;;;;;5042240;28;20041;-60
2023/10/31 03:59:25;;;;;;;11.57;2.42;;;;;;;;;;5045641;28;20048;-60
2023/10/31 04:01:51;;;;;;;14.82;2.33;;;;;;;;;;5042706;28;20072;-60
2023/10/31 04:04:17;;;;;;;18.90;2.42;;;;;;;;;;5043571;28;20489;-60
2023/10/31 04:06:44;;;;;;;11.10;2.50;;;;;;;;;;5044002;28;20136;-60
2023/10/31 04:09:10;;;;;;;8.98;1.90;;;;;;;;;;5045801;28;20065;-60
2023/10/31 04:11:36;;;;;;;12.30;2.45;;;;;;;;;;5045686;28;20045;-60
2023/10/31 04:14:03;;;;;;;7.07;1.92;;;;;;;;;;5039299;28;20040;-60
2023/10/31 04:16:30;;;;;;;7.60;2.05;;;;;;;;;;5045734;28;20579;-60
2023/10/31 04:18:56;;;;;;;12.00;2.20;;;;;;;;;;5045959;28;20043;-60
2023/10/31 04:21:22;;;;;;;15.68;2.63;;;;;;;;;;5045889;28;20479;-60
2023/10/31 04:23:48;;;;;;;10.73;2.58;;;;;;;;;;5048430;28;20317;-60
2023/10/31 04:26:15;;;;;;;8.98;3.00;;;;;;;;;;5052365;28;20041;-60
2023/10/31 04:28:42;;;;;;;13.63;2.80;;;;;;;;;;5047367;28;20096;-60
2023/10/31 04:31:08;;;;;;;13.85;2.60;;;;;;;;;;5050869;28;20057;-60
2023/10/31 04:33:34;;;;;;;12.07;1.88;;;;;;;;;;5046235;28;20040;-60
2023/10/31 04:36:02;;;;;;;7.40;1.67;;;;;;;;;;5045025;28;20056;-60
2023/10/31 04:38:28;;;;;;;7.90;1.60;;;;;;;;;;5044875;28;20056;-60
2023/10/31 04:40:54;;;;;;;7.53;1.80;;;;;;;;;;5045505;28;20174;-60
2023/10/31 04:43:20;;;;;;;10.55;2.05;;;;;;;;;;5044902;28;20056;-60
2023/10/31 04:45:46;;;;;;;5.95;1.83;;;;;;;;;;5025542;28;20095;-60
2023/10/31 04:48:21;;;;;;;5.90;1.45;;;;;;;;;;5043664;28;20044;-60
2023/10/31 04:50:47;;;;;;;9.20;1.65;;;;;;;;;;5045319;28;20040;-60
2023/10/31 04:53:13;;;;;;;8.88;1.60;;;;;;;;;;5043100;28;20040;-60
2023/10/31 04:55:39;;;;;;;5.80;1.70;;;;;;;;;;5042950;28;20048;-60
2023/10/31 04:58:06;;;;;;;5.95;1.55;;;;;;;;;;5045353;28;20047;-60
2023/10/31 05:00:32;;;;;;;9.73;1.60;;;;;;;;;;5046244;28;20056;-60
2023/10/31 05:02:59;;;;;;;7.65;1.88;;;;;;;;;;5042587;28;20044;-60
2023/10/31 05:05:26;;;;;;;8.77;1.92;;;;;;;;;;5045583;28;20049;-60
2023/10/31 05:07:52;;;;;;;10.35;2.03;;;;;;;;;;5043920;28;20121;-60
2023/10/31 05:10:18;;;;;;;13.30;2.00;;;;;;;;;;5042400;28;20082;-60
2023/10/31 05:12:44;;;;;;;7.05;1.92;;;;;;;;;;5043846;28;20033;-60
2023/10/31 05:15:11;;;;;;;7.63;1.88;;;;;;;;;;5051034;28;20033;-60
2023/10/31 05:17:37;;;;;;;8.75;2.00;;;;;;;;;;5047866;28;20120;-60
2023/10/31 05:20:03;;;;;;;10.27;1.92;;;;;;;;;;5044860;28;20469;-60
2023/10/31 05:22:29;;;;;;;7.13;1.67;;;;;;;;;;5042800;28;20063;-60
2023/10/31 05:24:55;;;;;;;9.05;2.08;;;;;;;;;;5042445;28;20225;-60
2023/10/31 05:27:21;;;;;;;16.40;2.15;;;;;;;;;;5045153;28;20052;-60
2023/10/31 05:29:48;;;;;;;6.38;2.30;;;;;;;;;;5044414;28;20561;-60
2023/10/31 05:32:14;;;;;;;9.70;2.40;;;;;;;;;;5042637;28;20047;-60
2023/10/31 05:34:40;;;;;;;8.38;2.83;;;;;;;;;;5048764;28;20190;-60
2023/10/31 05:37:06;;;;;;;9.43;2.42;;;;;;;;;;5050326;28;20051;-60
2023/10/31 05:39:33;;;;;;;11.40;2.28;;;;;;;;;;5048223;28;20401;-60
2023/10/31 05:41:59;;;;;;;9.05;2.30;;;;;;;;;;5050958;28;20036;-60
2023/10/31 05:44:25;;;;;;;8.52;2.97;;;;;;;;;;5049295;28;20067;-60
2023/10/31 05:46:51;;;;;;;8.50;2.33;;;;;;;;;;5051160;28;20140;-60
2023/10/31 05:49:19;;;;;;;7.00;2.38;;;;;;;;;;5044826;28;20045;-60
2023/10/31 05:51:45;;;;;;;13.55;2.30;;;;;;;;;;5045982;28;20057;-60
2023/10/31 05:54:11;;;;;;;8.30;2.30;;;;;;;;;;5040913;28;20417;-60
2023/10/31 05:56:37;;;;;;;8.05;2.22;;;;;;;;;;5043556;28;20130;-60
2023/10/31 05:59:04;;;;;;;11.07;2.50;;;;;;;;;;5043349;28;20040;-60
2023/10/31 06:01:30;;;;;;;12.07;3.10;;;;;;;;;;5049847;28;20139;-60
2023/10/31 06:03:56;;;;;;;15.63;2.95;;;;;;;;;;5029372;28;20040;-60
2023/10/31 06:06:22;;;;;;;14.73;3.65;;;;;;;;;;5046819;28;20041;-60
2023/10/31 06:08:48;;;;;;;9.15;2.80;;;;;;;;;;5048919;28;20033;-60
2023/10/31 06:11:15;;;;;;;10.27;3.28;;;;;;;;;;5044415;28;20174;-60
2023/10/31 06:13:41;;;;;;;13.05;3.05;;;;;;;;;;5048331;28;20471;-60
2023/10/31 06:16:08;;;;;;;13.32;3.38;;;;;;;;;;5051719;28;20098;-60
2023/10/31 06:18:35;;;;;;;9.50;3.22;;;;;;;;;;5050027;28;20037;-60
2023/10/31 06:21:01;;;;;;;13.38;3.20;;;;;;;;;;5048875;28;20049;-60
2023/10/31 06:23:27;;;;;;;8.00;3.13;;;;;;;;;;5051772;28;20186;-60
2023/10/31 06:25:53;;;;;;;10.75;3.78;;;;;;;;;;5046772;28;20041;-60
2023/10/31 06:28:19;;;;;;;13.07;3.03;;;;;;;;;;5050454;28;20641;-60
2023/10/31 06:30:45;;;;;;;14.32;3.17;;;;;;;;;;5050163;28;20103;-60
2023/10/31 06:33:12;;;;;;;11.82;3.28;;;;;;;;;;5051664;28;20111;-60
2023/10/31 06:35:38;;;;;;;12.40;3.00;;;;;;;;;;5049385;28;20048;-60
2023/10/31 06:38:04;;;;;;;9.63;3.10;;;;;;;;;;5051406;28;20049;-61
2023/10/31 06:40:30;;;;;;;13.77;2.97;;;;;;;;;;5050508;28;20132;-60
2023/10/31 06:42:56;;;;;;;10.45;2.55;;;;;;;;;;5050442;28;20124;-60
2023/10/31 06:45:22;;;;;;;12.80;2.97;;;;;;;;;;5051202;28;20041;-60
2023/10/31 06:47:49;;;;;;;9.55;2.47;;;;;;;;;;5050527;28;20485;-60
2023/10/31 06:50:15;;;;;;;13.43;2.28;;;;;;;;;;5046646;28;20110;-60
2023/10/31 06:52:41;;;;;;;17.35;2.58;;;;;;;;;;5051315;28;20129;-60
2023/10/31 06:55:08;;;;;;;15.90;2.58;;;;;;;;;;5050476;28;20052;-60
2023/10/31 06:57:34;;;;;;;7.63;1.15;;;;;;;;;;5050905;28;20086;-60
2023/10/31 07:00:00;;;;;;;5.95;1.23;;;;;;;;;;5045175;28;20072;-60
2023/10/31 07:02:26;;;;;;;9.65;1.50;;;;;;;;;;5041838;28;20110;-60
2023/10/31 07:04:52;;;;;;;13.85;1.15;;;;;;;;;;5043410;28;20128;-60
2023/10/31 07:07:18;;;;;;;7.30;1.15;;;;;;;;;;5050922;28;20048;-60
2023/10/31 07:09:44;;;;;;;7.57;1.20;;;;;;;;;;5046962;28;20140;-60
2023/10/31 07:12:11;;;;;;;5.47;1.10;;;;;;;;;;5050988;28;20088;-60
2023/10/31 07:14:37;;;;;;;6.15;0.90;;;;;;;;;;5050656;28;20052;-62
2023/10/31 07:17:03;;;;;;;9.02;1.42;;;;;;;;;;5049957;28;20518;-61
2023/10/31 07:19:29;;;;;;;8.68;1.13;;;;;;;;;;5043319;28;20401;-62
2023/10/31 07:21:55;;;;;;;8.57;1.08;;;;;;;;;;5050894;28;20037;-62
2023/10/31 07:24:22;;;;;;;10.88;1.40;;;;;;;;;;5044245;28;20096;-61
2023/10/31 07:26:48;;;;;;;11.25;1.63;;;;;;;;;;5048707;28;20041;-61
2023/10/31 07:29:14;;;;;;;11.95;1.20;;;;;;;;;;5051399;28;20048;-61
2023/10/31 07:31:40;;;;;;;7.55;0.82;;;;;;;;;;5049577;28;20505;-61
2023/10/31 07:34:07;;;;;;;5.63;1.00;;;;;;;;;;5050103;28;20041;-61
2023/10/31 07:36:34;;;;;;;10.60;1.20;;;;;;;;;;5048568;28;20461;-62
2023/10/31 07:39:01;;;;;;;4.32;0.90;;;;;;;;;;5049759;28;20045;-61
2023/10/31 07:41:28;;;;;;;7.05;1.02;;;;;;;;;;5050129;28;20060;-61
2023/10/31 07:43:54;;;;;;;5.47;0.88;;;;;;;;;;5046709;28;20580;-61
2023/10/31 07:46:20;;;;;;;8.30;1.05;;;;;;;;;;5049855;28;20124;-62
2023/10/31 07:48:46;;;;;;;6.35;0.77;;;;;;;;;;5050142;28;20453;-61
2023/10/31 07:51:12;;;;;;;7.40;0.90;;;;;;;;;;5049709;28;20045;-61
2023/10/31 07:53:39;;;;;;;5.93;0.60;;;;;;;;;;5046735;28;20065;-61
2023/10/31 07:56:05;;;;;;;7.50;1.20;;;;;;;;;;5050202;28;20041;-61
2023/10/31 07:58:31;;;;;;;6.70;0.80;;;;;;;;;;5049485;28;20119;-61
2023/10/31 08:00:57;;;;;;;8.50;1.10;;;;;;;;;;5030259;28;20080;-61
2023/10/31 08:03:25;;;;;;;8.63;1.10;;;;;;;;;;5048695;28;20045;-61
2023/10/31 08:05:51;;;;;;;8.95;1.23;;;;;;;;;;5049502;28;20377;-61
2023/10/31 08:08:17;;;;;;;6.95;1.20;;;;;;;;;;5050167;28;20124;-61
2023/10/31 08:10:43;;;;;;;17.52;1.60;;;;;;;;;;5049641;28;20762;-61
2023/10/31 08:13:09;;;;;;;7.13;1.52;;;;;;;;;;5048617;28;20040;-61
2023/10/31 08:15:36;;;;;;;11.93;1.30;;;;;;;;;;5050172;28;20048;-61
2023/10/31 08:18:03;;;;;;;7.05;1.33;;;;;;;;;;5046010;28;20109;-61
2023/10/31 08:20:33;;;;;;;15.23;1.40;;;;;;;;;;5049348;28;20676;-61
2023/10/31 08:22:59;;;;;;;13.73;2.42;;;;;;;;;;5050071;28;20056;-62
2023/10/31 08:25:25;;;;;;;10.40;1.10;;;;;;;;;;5050435;28;20076;-62
2023/10/31 08:27:51;;;;;;;15.07;1.30;;;;;;;;;;5046372;28;20549;-61
2023/10/31 08:30:17;;;;;;;7.20;1.75;;;;;;;;;;5048558;28;20182;-61
2023/10/31 08:32:44;;;;;;;7.03;1.20;;;;;;;;;;5050199;28;20056;-62
2023/10/31 08:35:10;;;;;;;12.30;1.55;;;;;;;;;;5048991;28;20047;-61
2023/10/31 08:37:37;;;;;;;9.15;1.20;;;;;;;;;;5048502;28;20123;-61
2023/10/31 08:40:04;;;;;;;8.05;0.98;;;;;;;;;;5049739;28;20041;-61
2023/10/31 08:42:30;;;;;;;3.63;0.65;;;;;;;;;;5049236;28;20041;-61
2023/10/31 08:44:56;;;;;;;8.13;1.33;;;;;;;;;;5052556;28;20048;-61
2023/10/31 08:47:23;;;;;;;11.27;1.77;;;;;;;;;;5051137;28;20447;-61
2023/10/31 08:49:49;;;;;;;4.47;0.88;;;;;;;;;;5053625;28;20053;-61
2023/10/31 08:52:15;;;;;;;7.75;1.17;;;;;;;;;;5053377;28;20041;-62
2023/10/31 08:54:41;;;;;;;13.55;1.27;;;;;;;;;;5051405;28;20053;-61
2023/10/31 08:57:08;;;;;;;2.58;0.57;;;;;;;;;;5052549;28;20048;-62
2023/10/31 08:59:34;;;;;;;8.15;1.23;;;;;;;;;;5053410;28;20041;-61
2023/10/31 09:02:01;;;;;;;8.23;1.05;;;;;;;;;;5052443;28;20051;-62
2023/10/31 09:04:27;;;;;;;4.43;1.38;;;;;;;;;;5053329;28;20373;-62
2023/10/31 09:06:53;;;;;;;4.13;0.68;;;;;;;;;;5051736;28;20048;-62
2023/10/31 09:09:19;;;;;;;4.25;0.98;;;;;;;;;;5052251;28;20064;-61
2023/10/31 09:11:45;;;;;;;5.95;0.90;;;;;;;;;;5032576;28;20536;-61
2023/10/31 09:14:12;;;;;;;5.13;1.38;;;;;;;;;;5052994;28;20064;-61
2023/10/31 09:16:38;;;;;;;9.35;1.10;;;;;;;;;;5031773;28;20493;-61
2023/10/31 09:19:04;;;;;;;6.40;1.05;;;;;;;;;;5052970;28;20059;-61
2023/10/31 09:21:30;;;;;;;8.75;1.83;;;;;;;;;;5052758;28;20077;-62
2023/10/31 09:23:56;;;;;;;6.78;1.02;;;;;;;;;;5051962;28;20040;-62
2023/10/31 09:26:22;;;;;;;6.60;0.68;;;;;;;;;;5050525;28;20128;-61
2023/10/31 09:28:51;;;;;;;7.03;1.25;;;;;;;;;;5052517;28;20515;-61
2023/10/31 09:31:18;;;;;;;11.30;0.90;;;;;;;;;;5052068;28;20405;-62
2023/10/31 09:33:45;;;;;;;9.88;1.20;;;;;;;;;;5018180;28;20041;-61
2023/10/31 09:36:12;;;;;;;5.85;1.45;;;;;;;;;;5051854;28;20127;-61
2023/10/31 09:38:38;;;;;;;8.07;1.05;;;;;;;;;;5051838;28;20037;-61
2023/10/31 09:41:05;;;;;;;5.78;1.05;;;;;;;;;;5034222;28;20144;-61
2023/10/31 09:43:31;;;;;;;7.30;0.90;;;;;;;;;;5033190;28;20503;-61
2023/10/31 09:46:00;;;;;;;7.72;1.00;;;;;;;;;;5033927;28;20095;-61
2023/10/31 09:48:26;;;;;;;6.28;0.98;;;;;;;;;;5052377;28;20405;-62
2023/10/31 09:50:53;;;;;;;6.50;0.95;;;;;;;;;;5051754;28;20047;-62
2023/10/31 09:53:20;;;;;;;8.05;0.70;;;;;;;;;;5051337;28;20049;-62
2023/10/31 09:55:50;;;;;;;14.80;1.30;;;;;;;;;;5051719;28;20083;-61
2023/10/31 09:58:17;;;;;;;5.80;0.90;;;;;;;;;;5051409;28;20037;-61
2023/10/31 10:00:43;;;;;;;7.30;1.02;;;;;;;;;;5052099;28;20075;-61
2023/10/31 10:03:09;;;;;;;9.60;1.35;;;;;;;;;;5050094;28;20036;-62
2023/10/31 10:05:36;;;;;;;6.30;1.00;;;;;;;;;;5050303;28;20068;-61
2023/10/31 10:08:03;;;;;;;5.40;1.00;;;;;;;;;;5063002;28;20041;-62
2023/10/31 10:10:31;;;;;;;5.95;1.00;;;;;;;;;;5034376;28;20171;-62
2023/10/31 10:12:58;;;;;;;5.90;0.90;;;;;;;;;;5049371;28;20049;-61
2023/10/31 10:15:24;;;;;;;7.07;1.45;;;;;;;;;;5051926;28;20135;-62
2023/10/31 10:17:51;;;;;;;5.70;1.13;;;;;;;;;;5051663;28;20084;-61
2023/10/31 10:20:18;;;;;;;5.72;1.00;;;;;;;;;;5051302;28;20508;-61
2023/10/31 10:22:44;;;;;;;7.43;1.15;;;;;;;;;;5050568;28;20082;-61
2023/10/31 10:25:21;;;;;;;5.45;0.95;;;;;;;;;;5050382;28;20095;-62
2023/10/31 10:27:47;;;;;;;8.10;0.95;;;;;;;;;;5049064;28;20053;-62
2023/10/31 10:30:14;;;;;;;3.30;0.85;;;;;;;;;;5051132;28;20053;-61
2023/10/31 10:32:40;;;;;;;6.57;0.95;;;;;;;;;;5047780;28;20152;-61
2023/10/31 10:35:08;;;;;;;4.95;0.90;;;;;;;;;;5002594;28;20175;-61
2023/10/31 10:37:36;;;;;;;5.68;0.77;;;;;;;;;;5048078;28;20378;-61
2023/10/31 10:40:03;;;;;;;8.75;1.13;;;;;;;;;;5045485;28;20113;-61
2023/10/31 10:42:33;;;;;;;7.35;1.27;;;;;;;;;;5049263;28;20500;-61
2023/10/31 10:45:04;;;;;;;11.57;2.03;;;;;;;;;;5031416;28;20464;-61
2023/10/31 10:47:32;;;;;;;7.82;1.33;;;;;;;;;;5050108;28;20050;-61
2023/10/31 10:50:00;;;;;;;5.57;1.20;;;;;;;;;;5050903;28;20037;-62
2023/10/31 10:52:28;;;;;;;11.88;1.42;;;;;;;;;;5050977;28;20463;-61
2023/10/31 10:54:55;;;;;;;8.63;1.00;;;;;;;;;;5048977;28;20068;-62
2023/10/31 10:57:39;;;;;;;6.55;1.08;;;;;;;;;;5049645;28;20086;-61
2023/10/31 11:00:12;;;;;;;9.80;1.50;;;;;;;;;;5049425;28;20037;-62
2023/10/31 11:02:40;;;;;;;9.80;1.23;;;;;;;;;;5050220;28;20049;-61
2023/10/31 11:05:09;;;;;;;7.82;1.13;;;;;;;;;;5050405;28;20044;-61
2023/10/31 11:07:39;;;;;;;5.32;1.10;;;;;;;;;;5048581;28;20144;-61
2023/10/31 11:10:06;;;;;;;10.52;1.65;;;;;;;;;;5031557;28;20138;-62
2023/10/31 11:12:33;;;;;;;5.13;0.93;;;;;;;;;;5051195;28;20048;-61
2023/10/31 11:15:00;;;;;;;8.23;1.10;;;;;;;;;;5050672;28;20125;-61
2023/10/31 11:17:37;;;;;;;9.88;1.50;;;;;;;;;;5050571;28;20402;-61
2023/10/31 11:20:03;;;;;;;11.05;1.30;;;;;;;;;;5049313;28;20085;-61
2023/10/31 11:22:43;;;;;;;11.90;1.40;;;;;;;;;;5050112;28;20044;-61
2023/10/31 11:25:10;;;;;;;8.20;1.50;;;;;;;;;;5050573;28;20110;-62
2023/10/31 11:27:37;;;;;;;9.00;1.52;;;;;;;;;;5050865;28;20041;-62
2023/10/31 11:30:07;;;;;;;10.77;1.58;;;;;;;;;;5048003;28;20057;-61
2023/10/31 11:32:33;;;;;;;8.18;1.13;;;;;;;;;;5048893;28;20044;-61
2023/10/31 11:35:01;;;;;;;7.32;1.17;;;;;;;;;;5046318;28;20056;-62
2023/10/31 11:37:34;;;;;;;16.17;2.30;;;;;;;;;;5048792;28;20507;-62
2023/10/31 11:40:19;;;;;;;9.37;1.30;;;;;;;;;;5043409;28;20080;-61
2023/10/31 11:42:50;;;;;;;10.07;1.40;;;;;;;;;;5050541;28;20511;-61
2023/10/31 11:45:36;;;;;;;13.90;1.40;;;;;;;;;;5049624;28;20480;-61
2023/10/31 11:48:04;;;;;;;9.95;1.20;;;;;;;;;;5050717;28;20103;-62
2023/10/31 11:50:31;;;;;;;9.13;1.20;;;;;;;;;;5047131;28;20041;-61
2023/10/31 11:53:05;;;;;;;6.43;1.20;;;;;;;;;;5049871;28;20052;-61
2023/10/31 11:55:41;;;;;;;8.35;1.73;;;;;;;;;;5050223;28;20053;-62
2023/10/31 11:58:18;;;;;;;7.13;1.05;;;;;;;;;;5050046;28;20504;-61
2023/10/31 12:00:45;;;;;;;13.48;1.30;;;;;;;;;;5049061;28;20100;-61
2023/10/31 12:03:11;;;;;;;15.40;1.75;;;;;;;;;;5050472;28;20045;-61
2023/10/31 12:05:37;;;;;;;9.23;1.95;;;;;;;;;;5049568;28;20132;-62
2023/10/31 12:08:03;;;;;;;9.60;1.08;;;;;;;;;;5041844;28;20040;-62
2023/10/31 12:10:30;;;;;;;8.88;1.13;;;;;;;;;;5048033;28;20128;-61
2023/10/31 12:12:58;;;;;;;8.55;1.55;;;;;;;;;;5049620;28;20412;-61
2023/10/31 12:15:24;;;;;;;4.97;1.40;;;;;;;;;;5050091;28;20123;-61
2023/10/31 12:17:50;;;;;;;10.90;1.50;;;;;;;;;;5047659;28;20120;-61
2023/10/31 12:20:17;;;;;;;6.32;1.10;;;;;;;;;;5050872;28;20462;-61
2023/10/31 12:22:44;;;;;;;12.52;1.30;;;;;;;;;;5035840;28;20149;-61
2023/10/31 12:25:11;;;;;;;11.30;1.30;;;;;;;;;;5054032;28;20049;-61
2023/10/31 12:27:47;;;;;;;14.25;2.35;;;;;;;;;;5052244;28;20105;-62
2023/10/31 12:30:14;;;;;;;8.85;0.90;;;;;;;;;;5052128;28;20049;-61
2023/10/31 12:32:44;;;;;;;8.50;1.15;;;;;;;;;;5053002;28;20602;-62
2023/10/31 12:35:16;;;;;;;8.43;1.63;;;;;;;;;;5053805;28;20166;-62
2023/10/31 12:37:46;;;;;;;8.55;1.45;;;;;;;;;;5053941;28;20033;-61
2023/10/31 12:40:16;;;;;;;7.07;0.90;;;;;;;;;;5051621;28;20404;-61
2023/10/31 12:42:43;;;;;;;17.67;2.30;;;;;;;;;;5053524;28;20566;-61
2023/10/31 12:45:09;;;;;;;8.90;1.30;;;;;;;;;;5053736;28;20511;-61
2023/10/31 12:47:35;;;;;;;8.10;1.20;;;;;;;;;;5052635;28;20512;-62
2023/10/31 12:50:16;;;;;;;8.23;1.13;;;;;;;;;;5052061;28;20048;-61
2023/10/31 12:52:51;;;;;;;4.10;1.05;;;;;;;;;;5053552;28;20419;-61
2023/10/31 12:55:18;;;;;;;4.30;0.80;;;;;;;;;;5052699;28;20048;-61
2023/10/31 12:57:46;;;;;;;4.43;0.70;;;;;;;;;;5052441;28;20041;-62
2023/10/31 13:00:12;;;;;;;3.15;0.63;;;;;;;;;;5051771;28;20040;-61
2023/10/31 13:02:40;;;;;;;5.22;1.23;;;;;;;;;;5052567;28;20056;-62
2023/10/31 13:05:10;;;;;;;5.70;1.20;;;;;;;;;;5053410;28;20047;-62
2023/10/31 13:07:36;;;;;;;5.95;1.30;;;;;;;;;;5052326;28;20110;-61
2023/10/31 13:10:03;;;;;;;7.38;1.80;;;;;;;;;;5033843;28;20119;-61
2023/10/31 13:12:30;;;;;;;5.78;1.00;;;;;;;;;;5053173;28;20052;-61
2023/10/31 13:14:56;;;;;;;8.15;0.90;;;;;;;;;;5052180;28;20060;-61
2023/10/31 13:17:23;;;;;;;4.25;0.90;;;;;;;;;;5053091;28;20052;-61
2023/10/31 13:19:49;;;;;;;3.85;0.98;;;;;;;;;;5052309;28;20044;-61
2023/10/31 13:22:15;;;;;;;3.90;0.80;;;;;;;;;;5051840;28;20497;-61
2023/10/31 13:24:42;;;;;;;7.13;1.10;;;;;;;;;;5052901;28;20048;-61
2023/10/31 13:27:11;;;;;;;4.82;0.98;;;;;;;;;;5053322;28;20087;-61
2023/10/31 13:29:38;;;;;;;4.80;0.88;;;;;;;;;;5048724;28;20369;-62
2023/10/31 13:32:04;;;;;;;5.85;1.40;;;;;;;;;;5051161;28;20068;-62
2023/10/31 13:34:32;;;;;;;3.65;0.90;;;;;;;;;;5052622;28;20045;-61
2023/10/31 13:36:58;;;;;;;4.65;0.80;;;;;;;;;;5051982;28;20048;-61
2023/10/31 13:39:25;;;;;;;7.10;1.17;;;;;;;;;;5052761;28;20361;-61
2023/10/31 13:41:51;;;;;;;10.90;1.48;;;;;;;;;;5051783;28;20142;-61
2023/10/31 13:44:17;;;;;;;7.22;1.10;;;;;;;;;;5051978;28;20033;-62
2023/10/31 13:46:43;;;;;;;5.97;0.93;;;;;;;;;;5052357;28;20094;-62
2023/10/31 13:49:09;;;;;;;3.60;0.82;;;;;;;;;;5052586;28;20392;-62
2023/10/31 13:51:35;;;;;;;3.25;0.88;;;;;;;;;;5050242;28;20049;-61
2023/10/31 13:54:02;;;;;;;3.00;0.90;;;;;;;;;;5052201;28;20048;-61
2023/10/31 13:56:28;;;;;;;2.85;0.60;;;;;;;;;;5052382;28;20056;-61
2023/10/31 13:58:54;;;;;;;4.10;0.80;;;;;;;;;;5049526;28;20128;-61
2023/10/31 14:01:24;;;;;;;5.03;0.90;;;;;;;;;;5052354;28;20433;-61
2023/10/31 14:03:51;;;;;;;5.47;0.90;;;;;;;;;;5051353;28;20045;-61
2023/10/31 14:06:17;;;;;;;2.92;0.90;;;;;;;;;;5052193;28;20504;-62
2023/10/31 14:08:43;;;;;;;3.92;0.73;;;;;;;;;;5050567;28;20047;-62
2023/10/31 14:11:09;;;;;;;5.32;1.02;;;;;;;;;;5051217;28;20551;-62
2023/10/31 14:13:36;;;;;;;5.07;1.10;;;;;;;;;;5050810;28;20083;-61
2023/10/31 14:16:02;;;;;;;4.00;0.55;;;;;;;;;;5049841;28;20045;-61
2023/10/31 14:18:29;;;;;;;6.55;0.82;;;;;;;;;;5049374;28;20047;-61
2023/10/31 14:20:55;;;;;;;4.80;0.80;;;;;;;;;;5046942;28;20059;-61
2023/10/31 14:23:21;;;;;;;6.50;0.82;;;;;;;;;;5045689;28;20048;-62
2023/10/31 14:25:48;;;;;;;4.18;0.88;;;;;;;;;;5047142;28;20384;-61
2023/10/31 14:28:14;;;;;;;5.72;0.80;;;;;;;;;;5030171;28;20397;-62
2023/10/31 14:30:40;;;;;;;4.10;0.60;;;;;;;;;;5051145;28;20045;-62
2023/10/31 14:33:07;;;;;;;5.05;0.63;;;;;;;;;;5032927;28;20469;-61
2023/10/31 14:35:35;;;;;;;3.08;0.75;;;;;;;;;;5051638;28;20049;-62